TRA7E LEMG-EHEH
Flight info
| Callsign | TRA7E |
|---|---|
| Flight time | 2h 27m |
| Altitude | 36000 |
| Route | BLN N865 VTB N867 DGO L176 LUSEM DCT LULUT DCT ADABI DCT BOKNO UN858 VANAD UN874 ARSAF DCT EGOZE DCT CMB DCT VEKIN DCT ADUTO N873 FERDI Y18 DENUT |
| Aircraft | B738/M-SDE2E3FGHIJ1RWXYZ/LB1 |
Departure
| Time | 2026-05-05 16:58 |
|---|---|
| Airport | Málaga-Costa del Sol Airport (LEMG) |
Arrival
| Time | 2026-05-05 19:26 |
|---|---|
| Airport | Eindhoven Airport (EHEH) |
| Time | Latitude | Longitude | Altitude | Speed | Heading |
|---|---|---|---|---|---|
| 2026-05-05 16:27 | 36.67761 | -4.49617 | 41 ft | 0 kts | 41° |
| 2026-05-05 16:51 | 36.67757 | -4.49621 | 40 ft | 4 kts | 42° |
| 2026-05-05 16:51 | 36.67738 | -4.49645 | 41 ft | 4 kts | 52° |
| 2026-05-05 16:51 | 36.67725 | -4.49672 | 41 ft | 4 kts | 83° |
| 2026-05-05 16:52 | 36.67730 | -4.49698 | 41 ft | 4 kts | 124° |
| 2026-05-05 16:52 | 36.67744 | -4.49721 | 40 ft | 1 kts | 131° |
| 2026-05-05 16:52 | 36.67745 | -4.49722 | 40 ft | 0 kts | 131° |
| 2026-05-05 16:54 | 36.67744 | -4.49721 | 40 ft | 1 kts | 131° |
| 2026-05-05 16:54 | 36.67713 | -4.49676 | 40 ft | 14 kts | 131° |
| 2026-05-05 16:54 | 36.67629 | -4.49602 | 41 ft | 14 kts | 196° |
| 2026-05-05 16:54 | 36.67553 | -4.49674 | 42 ft | 13 kts | 212° |
| 2026-05-05 16:55 | 36.67505 | -4.49633 | 42 ft | 10 kts | 129° |
| 2026-05-05 16:55 | 36.67438 | -4.49541 | 41 ft | 19 kts | 133° |
| 2026-05-05 16:55 | 36.67328 | -4.49387 | 41 ft | 27 kts | 131° |
| 2026-05-05 16:55 | 36.67207 | -4.49214 | 41 ft | 26 kts | 131° |
| 2026-05-05 16:56 | 36.67092 | -4.49053 | 41 ft | 24 kts | 134° |
| 2026-05-05 16:56 | 36.66984 | -4.48903 | 39 ft | 23 kts | 131° |
| 2026-05-05 16:56 | 36.66879 | -4.48755 | 36 ft | 23 kts | 131° |
| 2026-05-05 16:56 | 36.66775 | -4.48611 | 34 ft | 22 kts | 132° |
| 2026-05-05 16:57 | 36.66671 | -4.48488 | 34 ft | 17 kts | 163° |
| 2026-05-05 16:57 | 36.66602 | -4.48531 | 36 ft | 10 kts | 223° |
| 2026-05-05 16:57 | 36.66559 | -4.48588 | 39 ft | 7 kts | 249° |
| 2026-05-05 16:57 | 36.66584 | -4.48642 | 38 ft | 10 kts | 312° |
| 2026-05-05 16:58 | 36.66758 | -4.48884 | 42 ft | 71 kts | 311° |
| 2026-05-05 16:58 | 36.67228 | -4.49544 | 46 ft | 131 kts | 311° |
| 2026-05-05 16:58 | 36.67933 | -4.50536 | 211 ft | 166 kts | 314° |
| 2026-05-05 16:58 | 36.68670 | -4.51609 | 1045 ft | 162 kts | 307° |
| 2026-05-05 16:59 | 36.69382 | -4.52695 | 1781 ft | 162 kts | 305° |
| 2026-05-05 16:59 | 36.70090 | -4.53789 | 2501 ft | 161 kts | 307° |
| 2026-05-05 16:59 | 36.70783 | -4.54865 | 3220 ft | 167 kts | 308° |
| 2026-05-05 16:59 | 36.71572 | -4.56079 | 3510 ft | 190 kts | 309° |
| 2026-05-05 17:00 | 36.72425 | -4.57390 | 3959 ft | 199 kts | 309° |
| 2026-05-05 17:00 | 36.73491 | -4.58553 | 4324 ft | 212 kts | 333° |
| 2026-05-05 17:00 | 36.74935 | -4.59161 | 4856 ft | 222 kts | 343° |
| 2026-05-05 17:00 | 36.76421 | -4.59682 | 5612 ft | 223 kts | 342° |
| 2026-05-05 17:01 | 36.77946 | -4.60233 | 6195 ft | 231 kts | 342° |
| 2026-05-05 17:01 | 36.79500 | -4.60794 | 6894 ft | 232 kts | 341° |
| 2026-05-05 17:01 | 36.81095 | -4.61094 | 7559 ft | 237 kts | 5° |
| 2026-05-05 17:01 | 36.82666 | -4.60303 | 7994 ft | 258 kts | 33° |
| 2026-05-05 17:02 | 36.84069 | -4.58840 | 8547 ft | 266 kts | 38° |
| 2026-05-05 17:02 | 36.85466 | -4.57280 | 9156 ft | 272 kts | 38° |
| 2026-05-05 17:02 | 36.86877 | -4.55701 | 9741 ft | 280 kts | 39° |
| 2026-05-05 17:02 | 36.88333 | -4.54072 | 10350 ft | 282 kts | 38° |
| 2026-05-05 17:03 | 36.89808 | -4.52431 | 10989 ft | 285 kts | 38° |
| 2026-05-05 17:03 | 36.91343 | -4.50819 | 11492 ft | 293 kts | 31° |
| 2026-05-05 17:03 | 36.93142 | -4.49446 | 11679 ft | 313 kts | 25° |
| 2026-05-05 17:03 | 36.95127 | -4.48110 | 11851 ft | 335 kts | 24° |
| 2026-05-05 17:04 | 36.97256 | -4.46705 | 12048 ft | 355 kts | 24° |
| 2026-05-05 17:04 | 36.99461 | -4.45233 | 12538 ft | 363 kts | 25° |
| 2026-05-05 17:04 | 37.00966 | -4.44213 | 12985 ft | 365 kts | 25° |
| 2026-05-05 17:04 | 37.03207 | -4.42674 | 13659 ft | 370 kts | 25° |
| 2026-05-05 17:05 | 37.05473 | -4.41102 | 14269 ft | 374 kts | 25° |
| 2026-05-05 17:05 | 37.07756 | -4.39506 | 14939 ft | 377 kts | 25° |
| 2026-05-05 17:05 | 37.10051 | -4.37894 | 15611 ft | 380 kts | 26° |
| 2026-05-05 17:05 | 37.12366 | -4.36264 | 16235 ft | 383 kts | 25° |
| 2026-05-05 17:06 | 37.14422 | -4.34819 | 16726 ft | 388 kts | 26° |
| 2026-05-05 17:06 | 37.14804 | -4.34549 | 16825 ft | 389 kts | 26° |
| 2026-05-05 17:06 | 37.17171 | -4.32880 | 17499 ft | 391 kts | 25° |
| 2026-05-05 17:06 | 37.19546 | -4.31200 | 18152 ft | 394 kts | 25° |
| 2026-05-05 17:07 | 37.21949 | -4.29500 | 18691 ft | 398 kts | 25° |
| 2026-05-05 17:07 | 37.24376 | -4.27783 | 19209 ft | 403 kts | 25° |
| 2026-05-05 17:07 | 37.26826 | -4.26048 | 19739 ft | 406 kts | 25° |
| 2026-05-05 17:07 | 37.29261 | -4.24322 | 20250 ft | 410 kts | 25° |
| 2026-05-05 17:08 | 37.31754 | -4.22554 | 20768 ft | 413 kts | 25° |
| 2026-05-05 17:08 | 37.34266 | -4.20771 | 21270 ft | 417 kts | 25° |
| 2026-05-05 17:08 | 37.36800 | -4.18971 | 21748 ft | 420 kts | 25° |
| 2026-05-05 17:08 | 37.39357 | -4.17154 | 22243 ft | 424 kts | 25° |
| 2026-05-05 17:09 | 37.41935 | -4.15321 | 22731 ft | 428 kts | 25° |
| 2026-05-05 17:09 | 37.44540 | -4.13467 | 23168 ft | 433 kts | 25° |
| 2026-05-05 17:09 | 37.47168 | -4.11594 | 23620 ft | 436 kts | 25° |
| 2026-05-05 17:09 | 37.49818 | -4.09705 | 24009 ft | 439 kts | 25° |
| 2026-05-05 17:10 | 37.52484 | -4.07802 | 24422 ft | 442 kts | 25° |
| 2026-05-05 17:10 | 37.55170 | -4.05883 | 24786 ft | 445 kts | 25° |
| 2026-05-05 17:10 | 37.57876 | -4.03948 | 25137 ft | 449 kts | 25° |
| 2026-05-05 17:10 | 37.60603 | -4.01998 | 25500 ft | 452 kts | 25° |
| 2026-05-05 17:11 | 37.63348 | -4.00033 | 25851 ft | 455 kts | 25° |
| 2026-05-05 17:11 | 37.66110 | -3.98053 | 26219 ft | 458 kts | 24° |
| 2026-05-05 17:11 | 37.68885 | -3.96061 | 26600 ft | 460 kts | 24° |
| 2026-05-05 17:11 | 37.71673 | -3.94060 | 26946 ft | 463 kts | 24° |
| 2026-05-05 17:12 | 37.74483 | -3.92042 | 27272 ft | 466 kts | 24° |
| 2026-05-05 17:12 | 37.77314 | -3.90006 | 27595 ft | 470 kts | 24° |
| 2026-05-05 17:12 | 37.80162 | -3.87956 | 27913 ft | 472 kts | 24° |
| 2026-05-05 17:12 | 37.83028 | -3.85891 | 28229 ft | 475 kts | 24° |
| 2026-05-05 17:13 | 37.85905 | -3.83816 | 28529 ft | 478 kts | 24° |
| 2026-05-05 17:13 | 37.88801 | -3.81725 | 28829 ft | 481 kts | 24° |
| 2026-05-05 17:13 | 37.91720 | -3.79619 | 29077 ft | 485 kts | 23° |
| 2026-05-05 17:13 | 37.94656 | -3.77497 | 29367 ft | 487 kts | 23° |
| 2026-05-05 17:14 | 37.97600 | -3.75349 | 29667 ft | 489 kts | 23° |
| 2026-05-05 17:14 | 38.00564 | -3.73205 | 29940 ft | 491 kts | 22° |
| 2026-05-05 17:14 | 38.03538 | -3.71054 | 30180 ft | 494 kts | 23° |
| 2026-05-05 17:14 | 38.06528 | -3.68885 | 30425 ft | 495 kts | 23° |
| 2026-05-05 17:15 | 38.09516 | -3.66712 | 30771 ft | 495 kts | 23° |
| 2026-05-05 17:15 | 38.12515 | -3.64609 | 31129 ft | 489 kts | 18° |
| 2026-05-05 17:15 | 38.15654 | -3.63048 | 31464 ft | 480 kts | 8° |
| 2026-05-05 17:15 | 38.18862 | -3.62072 | 31759 ft | 470 kts | 360° |
| 2026-05-05 17:16 | 38.22084 | -3.61683 | 32063 ft | 463 kts | 355° |
| 2026-05-05 17:16 | 38.25292 | -3.61412 | 32379 ft | 462 kts | 355° |
| 2026-05-05 17:16 | 38.28505 | -3.61147 | 32660 ft | 463 kts | 355° |
| 2026-05-05 17:16 | 38.31715 | -3.60872 | 32956 ft | 463 kts | 355° |
| 2026-05-05 17:17 | 38.34931 | -3.60582 | 33261 ft | 463 kts | 355° |
| 2026-05-05 17:17 | 38.38142 | -3.60281 | 33551 ft | 463 kts | 355° |
| 2026-05-05 17:17 | 38.41359 | -3.59971 | 33770 ft | 464 kts | 355° |
| 2026-05-05 17:17 | 38.44578 | -3.59657 | 34049 ft | 464 kts | 355° |
| 2026-05-05 17:18 | 38.47789 | -3.59340 | 34336 ft | 462 kts | 355° |
| 2026-05-05 17:18 | 38.50991 | -3.59024 | 34610 ft | 461 kts | 355° |
| 2026-05-05 17:18 | 38.54183 | -3.58710 | 34853 ft | 460 kts | 356° |
| 2026-05-05 17:18 | 38.57373 | -3.58398 | 35083 ft | 460 kts | 356° |
| 2026-05-05 17:19 | 38.60561 | -3.58086 | 35362 ft | 459 kts | 355° |
| 2026-05-05 17:19 | 38.63733 | -3.57773 | 35695 ft | 455 kts | 355° |
| 2026-05-05 17:19 | 38.66884 | -3.57463 | 35941 ft | 455 kts | 355° |
| 2026-05-05 17:19 | 38.70055 | -3.57155 | 35920 ft | 459 kts | 355° |
| 2026-05-05 17:20 | 38.76424 | -3.56531 | 35932 ft | 458 kts | 356° |
| 2026-05-05 17:20 | 38.82744 | -3.55904 | 35939 ft | 454 kts | 355° |
| 2026-05-05 17:21 | 38.88976 | -3.55288 | 35934 ft | 451 kts | 355° |
| 2026-05-05 17:22 | 38.98327 | -3.54365 | 35926 ft | 448 kts | 355° |
| 2026-05-05 17:22 | 39.04525 | -3.53752 | 35933 ft | 446 kts | 355° |
| 2026-05-05 17:23 | 39.10715 | -3.53142 | 35934 ft | 447 kts | 355° |
| 2026-05-05 17:23 | 39.16918 | -3.52531 | 35933 ft | 448 kts | 355° |
| 2026-05-05 17:24 | 39.23138 | -3.51916 | 35931 ft | 449 kts | 355° |
| 2026-05-05 17:24 | 39.29388 | -3.51296 | 35929 ft | 451 kts | 355° |
| 2026-05-05 17:25 | 39.35661 | -3.50673 | 35933 ft | 453 kts | 356° |
| 2026-05-05 17:25 | 39.41963 | -3.50044 | 35930 ft | 455 kts | 356° |
| 2026-05-05 17:26 | 39.48277 | -3.49413 | 35935 ft | 455 kts | 356° |
| 2026-05-05 17:26 | 39.54598 | -3.48781 | 35967 ft | 456 kts | 356° |
| 2026-05-05 17:27 | 39.60923 | -3.48145 | 35939 ft | 456 kts | 356° |
| 2026-05-05 17:27 | 39.67235 | -3.47504 | 35931 ft | 454 kts | 356° |
| 2026-05-05 17:28 | 39.73530 | -3.46864 | 35929 ft | 453 kts | 356° |
| 2026-05-05 17:28 | 39.79804 | -3.46154 | 35939 ft | 455 kts | 359° |
| 2026-05-05 17:29 | 39.86029 | -3.44959 | 35941 ft | 456 kts | 1° |
| 2026-05-05 17:29 | 39.92277 | -3.43626 | 35939 ft | 454 kts | 1° |
| 2026-05-05 17:30 | 39.98512 | -3.42331 | 35982 ft | 453 kts | 1° |
| 2026-05-05 17:30 | 40.04743 | -3.41073 | 35952 ft | 453 kts | 1° |
| 2026-05-05 17:31 | 40.10974 | -3.39824 | 35946 ft | 453 kts | 1° |
| 2026-05-05 17:31 | 40.17198 | -3.38575 | 35945 ft | 453 kts | 1° |
| 2026-05-05 17:32 | 40.23422 | -3.37321 | 35945 ft | 454 kts | 1° |
| 2026-05-05 17:32 | 40.29663 | -3.36061 | 35948 ft | 454 kts | 1° |
| 2026-05-05 17:33 | 40.35906 | -3.34798 | 35939 ft | 454 kts | 1° |
| 2026-05-05 17:33 | 40.42156 | -3.33531 | 35942 ft | 455 kts | 1° |
| 2026-05-05 17:34 | 40.48420 | -3.32260 | 35946 ft | 456 kts | 1° |
| 2026-05-05 17:34 | 40.54697 | -3.30983 | 35935 ft | 456 kts | 1° |
| 2026-05-05 17:35 | 40.60967 | -3.29704 | 35934 ft | 456 kts | 1° |
| 2026-05-05 17:35 | 40.67234 | -3.28424 | 35941 ft | 455 kts | 1° |
| 2026-05-05 17:36 | 40.73495 | -3.27143 | 35943 ft | 455 kts | 1° |
| 2026-05-05 17:36 | 40.79748 | -3.25861 | 35949 ft | 455 kts | 1° |
| 2026-05-05 17:37 | 40.85953 | -3.24586 | 35953 ft | 455 kts | 1° |
| 2026-05-05 17:37 | 40.92201 | -3.23206 | 35962 ft | 456 kts | 2° |
| 2026-05-05 17:38 | 40.98493 | -3.21780 | 35952 ft | 456 kts | 2° |
| 2026-05-05 17:38 | 41.04694 | -3.20390 | 35957 ft | 454 kts | 2° |
| 2026-05-05 17:39 | 41.10928 | -3.18988 | 35973 ft | 455 kts | 3° |
| 2026-05-05 17:39 | 41.17170 | -3.17573 | 35973 ft | 455 kts | 3° |
| 2026-05-05 17:40 | 41.23409 | -3.16156 | 35977 ft | 455 kts | 3° |
| 2026-05-05 17:40 | 41.29643 | -3.14739 | 35972 ft | 455 kts | 3° |
| 2026-05-05 17:41 | 41.35880 | -3.13318 | 35998 ft | 455 kts | 3° |
| 2026-05-05 17:41 | 41.42125 | -3.11894 | 35986 ft | 456 kts | 3° |
| 2026-05-05 17:42 | 41.48374 | -3.10465 | 35995 ft | 455 kts | 3° |
| 2026-05-05 17:42 | 41.54616 | -3.09043 | 36006 ft | 456 kts | 4° |
| 2026-05-05 17:43 | 41.60872 | -3.07631 | 36001 ft | 456 kts | 4° |
| 2026-05-05 17:43 | 41.67132 | -3.06212 | 35995 ft | 456 kts | 4° |
| 2026-05-05 17:44 | 41.73390 | -3.04789 | 35995 ft | 456 kts | 4° |
| 2026-05-05 17:44 | 41.79660 | -3.03354 | 35993 ft | 458 kts | 4° |
| 2026-05-05 17:45 | 41.85947 | -3.01905 | 36005 ft | 459 kts | 4° |
| 2026-05-05 17:45 | 41.92239 | -3.00454 | 35994 ft | 459 kts | 4° |
| 2026-05-05 17:46 | 41.98542 | -2.98997 | 36004 ft | 460 kts | 5° |
| 2026-05-05 17:46 | 42.04858 | -2.97535 | 36010 ft | 461 kts | 5° |
| 2026-05-05 17:47 | 42.11176 | -2.96069 | 36011 ft | 461 kts | 5° |
| 2026-05-05 17:47 | 42.17502 | -2.94598 | 36031 ft | 461 kts | 5° |
| 2026-05-05 17:48 | 42.23828 | -2.93125 | 36020 ft | 461 kts | 5° |
| 2026-05-05 17:48 | 42.30142 | -2.91650 | 36012 ft | 460 kts | 5° |
| 2026-05-05 17:49 | 42.36443 | -2.90177 | 36023 ft | 459 kts | 5° |
| 2026-05-05 17:49 | 42.41660 | -2.88894 | 36007 ft | 461 kts | 11° |
| 2026-05-05 17:49 | 42.45696 | -2.86806 | 36020 ft | 468 kts | 24° |
| 2026-05-05 17:50 | 42.48436 | -2.84503 | 36008 ft | 472 kts | 34° |
| 2026-05-05 17:50 | 42.53391 | -2.78625 | 36013 ft | 474 kts | 39° |
| 2026-05-05 17:51 | 42.58258 | -2.72583 | 36030 ft | 474 kts | 39° |
| 2026-05-05 17:51 | 42.62357 | -2.67557 | 36020 ft | 475 kts | 39° |
| 2026-05-05 17:52 | 42.67285 | -2.61576 | 36012 ft | 475 kts | 39° |
| 2026-05-05 17:52 | 42.72212 | -2.55604 | 36019 ft | 475 kts | 39° |
| 2026-05-05 17:53 | 42.77113 | -2.49648 | 36018 ft | 475 kts | 39° |
| 2026-05-05 17:53 | 42.82036 | -2.43648 | 36008 ft | 475 kts | 39° |
| 2026-05-05 17:54 | 42.86966 | -2.37625 | 36004 ft | 476 kts | 39° |
| 2026-05-05 17:54 | 42.91887 | -2.31598 | 36005 ft | 476 kts | 39° |
| 2026-05-05 17:55 | 42.96812 | -2.25555 | 35997 ft | 476 kts | 39° |
| 2026-05-05 17:55 | 43.01737 | -2.19490 | 36019 ft | 477 kts | 40° |
| 2026-05-05 17:56 | 43.06657 | -2.13400 | 36007 ft | 477 kts | 40° |
| 2026-05-05 17:56 | 43.11575 | -2.07303 | 36001 ft | 477 kts | 40° |
| 2026-05-05 17:57 | 43.16494 | -2.01204 | 35997 ft | 477 kts | 40° |
| 2026-05-05 17:57 | 43.21400 | -1.95105 | 36010 ft | 476 kts | 40° |
| 2026-05-05 17:58 | 43.26297 | -1.89002 | 35998 ft | 475 kts | 40° |
| 2026-05-05 17:58 | 43.31235 | -1.82997 | 35977 ft | 473 kts | 34° |
| 2026-05-05 17:59 | 43.36835 | -1.78492 | 35998 ft | 469 kts | 25° |
| 2026-05-05 17:59 | 43.42467 | -1.73930 | 36016 ft | 471 kts | 31° |
| 2026-05-05 18:00 | 43.47918 | -1.68886 | 35987 ft | 472 kts | 32° |
| 2026-05-05 18:00 | 43.53365 | -1.63821 | 36003 ft | 472 kts | 32° |
| 2026-05-05 18:01 | 43.58837 | -1.58814 | 35994 ft | 472 kts | 31° |
| 2026-05-05 18:01 | 43.64329 | -1.53823 | 35995 ft | 472 kts | 31° |
| 2026-05-05 18:02 | 43.69819 | -1.48830 | 35973 ft | 473 kts | 32° |
| 2026-05-05 18:02 | 43.75302 | -1.43827 | 35978 ft | 472 kts | 32° |
| 2026-05-05 18:03 | 43.80782 | -1.38814 | 35977 ft | 472 kts | 32° |
| 2026-05-05 18:03 | 43.86253 | -1.33797 | 35983 ft | 472 kts | 32° |
| 2026-05-05 18:04 | 43.91721 | -1.28773 | 35971 ft | 471 kts | 32° |
| 2026-05-05 18:04 | 43.97184 | -1.23741 | 35975 ft | 471 kts | 32° |
| 2026-05-05 18:05 | 44.02641 | -1.18704 | 35981 ft | 471 kts | 32° |
| 2026-05-05 18:05 | 44.08087 | -1.13665 | 35960 ft | 470 kts | 32° |
| 2026-05-05 18:06 | 44.13525 | -1.08623 | 35968 ft | 469 kts | 32° |
| 2026-05-05 18:06 | 44.18951 | -1.03580 | 35964 ft | 469 kts | 32° |
| 2026-05-05 18:07 | 44.24334 | -0.98566 | 35975 ft | 468 kts | 33° |
| 2026-05-05 18:07 | 44.29751 | -0.93509 | 35967 ft | 468 kts | 33° |
| 2026-05-05 18:08 | 44.35162 | -0.88446 | 35957 ft | 468 kts | 33° |
| 2026-05-05 18:08 | 44.40614 | -0.83481 | 35946 ft | 468 kts | 27° |
| 2026-05-05 18:09 | 44.46513 | -0.79731 | 35952 ft | 466 kts | 22° |
| 2026-05-05 18:09 | 44.52468 | -0.76239 | 35932 ft | 466 kts | 22° |
| 2026-05-05 18:10 | 44.58437 | -0.72678 | 35940 ft | 466 kts | 22° |
| 2026-05-05 18:10 | 44.64393 | -0.69050 | 35948 ft | 466 kts | 22° |
| 2026-05-05 18:11 | 44.70342 | -0.65394 | 35942 ft | 467 kts | 22° |
| 2026-05-05 18:11 | 44.76294 | -0.61724 | 35939 ft | 467 kts | 22° |
| 2026-05-05 18:12 | 44.82251 | -0.58045 | 35944 ft | 467 kts | 23° |
| 2026-05-05 18:12 | 44.88205 | -0.54361 | 35938 ft | 468 kts | 23° |
| 2026-05-05 18:13 | 44.94160 | -0.50669 | 35937 ft | 468 kts | 23° |
| 2026-05-05 18:13 | 45.00113 | -0.46970 | 35935 ft | 467 kts | 23° |
| 2026-05-05 18:14 | 45.06068 | -0.43261 | 35928 ft | 467 kts | 23° |
| 2026-05-05 18:14 | 45.12014 | -0.39552 | 35924 ft | 467 kts | 23° |
| 2026-05-05 18:15 | 45.17950 | -0.35836 | 35922 ft | 466 kts | 23° |
| 2026-05-05 18:15 | 45.23874 | -0.32123 | 35924 ft | 465 kts | 23° |
| 2026-05-05 18:16 | 45.29797 | -0.28400 | 35919 ft | 465 kts | 24° |
| 2026-05-05 18:16 | 45.35664 | -0.24702 | 35913 ft | 464 kts | 24° |
| 2026-05-05 18:17 | 45.41563 | -0.20975 | 35917 ft | 464 kts | 24° |
| 2026-05-05 18:17 | 45.47456 | -0.17245 | 35911 ft | 463 kts | 24° |
| 2026-05-05 18:18 | 45.53342 | -0.13512 | 35912 ft | 463 kts | 24° |
| 2026-05-05 18:18 | 45.59226 | -0.09771 | 35912 ft | 463 kts | 24° |
| 2026-05-05 18:19 | 45.65105 | -0.06030 | 35911 ft | 463 kts | 24° |
| 2026-05-05 18:19 | 45.70986 | -0.02274 | 35899 ft | 463 kts | 24° |
| 2026-05-05 18:20 | 45.76864 | 0.01494 | 35905 ft | 463 kts | 24° |
| 2026-05-05 18:20 | 45.82745 | 0.05269 | 35909 ft | 463 kts | 24° |
| 2026-05-05 18:21 | 45.88596 | 0.09033 | 35903 ft | 464 kts | 24° |
| 2026-05-05 18:21 | 45.94524 | 0.12856 | 35902 ft | 464 kts | 24° |
| 2026-05-05 18:22 | 46.00376 | 0.16637 | 35904 ft | 465 kts | 24° |
| 2026-05-05 18:22 | 46.06279 | 0.20461 | 35887 ft | 465 kts | 24° |
| 2026-05-05 18:23 | 46.12172 | 0.24287 | 35883 ft | 465 kts | 24° |
| 2026-05-05 18:23 | 46.18066 | 0.28123 | 35882 ft | 464 kts | 25° |
| 2026-05-05 18:24 | 46.23952 | 0.31961 | 35879 ft | 464 kts | 25° |
| 2026-05-05 18:24 | 46.29828 | 0.35803 | 35880 ft | 463 kts | 25° |
| 2026-05-05 18:25 | 46.35687 | 0.39643 | 35871 ft | 462 kts | 25° |
| 2026-05-05 18:25 | 46.41537 | 0.43488 | 35873 ft | 461 kts | 25° |
| 2026-05-05 18:26 | 46.47377 | 0.47336 | 35880 ft | 461 kts | 25° |
| 2026-05-05 18:26 | 46.53210 | 0.51186 | 35883 ft | 460 kts | 25° |
| 2026-05-05 18:27 | 46.59220 | 0.54319 | 35886 ft | 460 kts | 13° |
| 2026-05-05 18:27 | 46.65479 | 0.56304 | 35880 ft | 460 kts | 12° |
| 2026-05-05 18:28 | 46.74870 | 0.59279 | 35872 ft | 461 kts | 13° |
| 2026-05-05 18:28 | 46.81129 | 0.61345 | 35865 ft | 461 kts | 13° |
| 2026-05-05 18:29 | 46.87390 | 0.63428 | 35862 ft | 461 kts | 13° |
| 2026-05-05 18:29 | 46.93655 | 0.65513 | 35863 ft | 462 kts | 13° |
| 2026-05-05 18:30 | 46.99915 | 0.67600 | 35863 ft | 461 kts | 13° |
| 2026-05-05 18:30 | 47.06199 | 0.69515 | 35851 ft | 461 kts | 6° |
| 2026-05-05 18:31 | 47.12471 | 0.71077 | 35870 ft | 460 kts | 15° |
| 2026-05-05 18:31 | 47.18666 | 0.73676 | 35856 ft | 460 kts | 17° |
| 2026-05-05 18:32 | 47.24802 | 0.76295 | 35855 ft | 459 kts | 16° |
| 2026-05-05 18:32 | 47.30950 | 0.78838 | 35855 ft | 459 kts | 16° |
| 2026-05-05 18:33 | 47.37094 | 0.81336 | 35854 ft | 458 kts | 15° |
| 2026-05-05 18:33 | 47.43189 | 0.83811 | 35846 ft | 457 kts | 15° |
| 2026-05-05 18:34 | 47.49315 | 0.86303 | 35856 ft | 456 kts | 15° |
| 2026-05-05 18:34 | 47.55428 | 0.88798 | 35856 ft | 456 kts | 15° |
| 2026-05-05 18:35 | 47.61539 | 0.91299 | 35862 ft | 455 kts | 16° |
| 2026-05-05 18:35 | 47.67644 | 0.93804 | 35848 ft | 455 kts | 16° |
| 2026-05-05 18:36 | 47.73740 | 0.96316 | 35845 ft | 455 kts | 16° |
| 2026-05-05 18:36 | 47.79830 | 0.98827 | 35847 ft | 454 kts | 16° |
| 2026-05-05 18:37 | 47.85912 | 1.01342 | 35841 ft | 453 kts | 17° |
| 2026-05-05 18:37 | 47.91988 | 1.03857 | 35848 ft | 453 kts | 17° |
| 2026-05-05 18:38 | 47.98044 | 1.06373 | 35850 ft | 453 kts | 17° |
| 2026-05-05 18:38 | 48.04107 | 1.08899 | 35850 ft | 452 kts | 17° |
| 2026-05-05 18:39 | 48.10175 | 1.11432 | 35852 ft | 452 kts | 17° |
| 2026-05-05 18:39 | 48.15215 | 1.13541 | 35849 ft | 453 kts | 17° |
| 2026-05-05 18:40 | 48.21283 | 1.16087 | 35849 ft | 453 kts | 17° |
| 2026-05-05 18:40 | 48.27344 | 1.18633 | 35845 ft | 453 kts | 17° |
| 2026-05-05 18:41 | 48.33411 | 1.21190 | 35845 ft | 453 kts | 17° |
| 2026-05-05 18:41 | 48.39477 | 1.23755 | 35841 ft | 453 kts | 17° |
| 2026-05-05 18:42 | 48.45540 | 1.26323 | 35842 ft | 452 kts | 17° |
| 2026-05-05 18:42 | 48.51597 | 1.28895 | 35847 ft | 452 kts | 17° |
| 2026-05-05 18:43 | 48.57646 | 1.31470 | 35836 ft | 452 kts | 17° |
| 2026-05-05 18:43 | 48.63688 | 1.34048 | 35850 ft | 451 kts | 17° |
| 2026-05-05 18:44 | 48.69741 | 1.36638 | 35851 ft | 452 kts | 17° |
| 2026-05-05 18:44 | 48.75804 | 1.39239 | 35846 ft | 453 kts | 17° |
| 2026-05-05 18:45 | 48.81827 | 1.41829 | 35845 ft | 453 kts | 17° |
| 2026-05-05 18:45 | 48.87770 | 1.44921 | 35838 ft | 450 kts | 30° |
| 2026-05-05 18:46 | 48.92904 | 1.50285 | 35851 ft | 449 kts | 39° |
| 2026-05-05 18:46 | 48.97884 | 1.56023 | 35844 ft | 449 kts | 39° |
| 2026-05-05 18:47 | 49.02879 | 1.61736 | 35844 ft | 449 kts | 38° |
| 2026-05-05 18:47 | 49.07896 | 1.67428 | 35826 ft | 449 kts | 38° |
| 2026-05-05 18:48 | 49.12906 | 1.73103 | 35831 ft | 449 kts | 38° |
| 2026-05-05 18:48 | 49.17918 | 1.78792 | 35838 ft | 448 kts | 39° |
| 2026-05-05 18:49 | 49.22917 | 1.84483 | 35845 ft | 448 kts | 39° |
| 2026-05-05 18:49 | 49.27907 | 1.90180 | 35849 ft | 448 kts | 39° |
| 2026-05-05 18:50 | 49.32897 | 1.95892 | 35856 ft | 448 kts | 39° |
| 2026-05-05 18:50 | 49.37890 | 2.01622 | 35845 ft | 448 kts | 39° |
| 2026-05-05 18:51 | 49.42870 | 2.07352 | 35856 ft | 447 kts | 39° |
| 2026-05-05 18:51 | 49.47841 | 2.13087 | 35859 ft | 447 kts | 39° |
| 2026-05-05 18:52 | 49.52812 | 2.18836 | 35852 ft | 447 kts | 39° |
| 2026-05-05 18:52 | 49.57778 | 2.24589 | 35854 ft | 447 kts | 39° |
| 2026-05-05 18:53 | 49.62743 | 2.30366 | 35856 ft | 448 kts | 39° |
| 2026-05-05 18:53 | 49.67714 | 2.36163 | 35850 ft | 448 kts | 39° |
| 2026-05-05 18:54 | 49.72695 | 2.41986 | 35846 ft | 449 kts | 39° |
| 2026-05-05 18:54 | 49.77679 | 2.47826 | 35857 ft | 450 kts | 39° |
| 2026-05-05 18:55 | 49.82667 | 2.53687 | 35839 ft | 451 kts | 39° |
| 2026-05-05 18:55 | 49.87664 | 2.59573 | 35848 ft | 451 kts | 39° |
| 2026-05-05 18:56 | 49.92663 | 2.65479 | 35859 ft | 452 kts | 39° |
| 2026-05-05 18:56 | 49.97666 | 2.71405 | 35854 ft | 452 kts | 39° |
| 2026-05-05 18:57 | 50.02662 | 2.77338 | 35852 ft | 452 kts | 40° |
| 2026-05-05 18:57 | 50.07653 | 2.83280 | 35848 ft | 452 kts | 40° |
| 2026-05-05 18:58 | 50.12604 | 2.89192 | 35850 ft | 451 kts | 40° |
| 2026-05-05 18:58 | 50.17618 | 2.95196 | 35841 ft | 451 kts | 40° |
| 2026-05-05 18:59 | 50.22571 | 3.01142 | 35515 ft | 454 kts | 40° |
| 2026-05-05 18:59 | 50.25062 | 3.04138 | 35289 ft | 450 kts | 40° |
| 2026-05-05 18:59 | 50.27531 | 3.07111 | 35036 ft | 446 kts | 40° |
| 2026-05-05 19:00 | 50.29991 | 3.10077 | 34804 ft | 445 kts | 40° |
| 2026-05-05 19:00 | 50.32436 | 3.13030 | 34566 ft | 444 kts | 41° |
| 2026-05-05 19:00 | 50.34877 | 3.15984 | 34328 ft | 443 kts | 41° |
| 2026-05-05 19:00 | 50.37309 | 3.18929 | 34094 ft | 442 kts | 41° |
| 2026-05-05 19:01 | 50.39735 | 3.21872 | 33853 ft | 441 kts | 41° |
| 2026-05-05 19:01 | 50.42154 | 3.24811 | 33577 ft | 441 kts | 41° |
| 2026-05-05 19:01 | 50.44582 | 3.27764 | 33301 ft | 442 kts | 41° |
| 2026-05-05 19:01 | 50.47020 | 3.30732 | 33026 ft | 443 kts | 41° |
| 2026-05-05 19:02 | 50.49459 | 3.33706 | 32765 ft | 445 kts | 41° |
| 2026-05-05 19:02 | 50.51989 | 3.36516 | 32090 ft | 448 kts | 33° |
| 2026-05-05 19:02 | 50.54792 | 3.38685 | 31507 ft | 449 kts | 26° |
| 2026-05-05 19:02 | 50.57666 | 3.40624 | 30826 ft | 450 kts | 25° |
| 2026-05-05 19:03 | 50.60556 | 3.42533 | 30217 ft | 449 kts | 25° |
| 2026-05-05 19:03 | 50.63404 | 3.44425 | 30007 ft | 440 kts | 25° |
| 2026-05-05 19:03 | 50.69091 | 3.48286 | 29868 ft | 448 kts | 26° |
| 2026-05-05 19:04 | 50.74779 | 3.52214 | 29849 ft | 445 kts | 26° |
| 2026-05-05 19:04 | 50.80444 | 3.56145 | 29856 ft | 444 kts | 26° |
| 2026-05-05 19:05 | 50.86081 | 3.60061 | 29298 ft | 440 kts | 26° |
| 2026-05-05 19:05 | 50.88890 | 3.61999 | 28548 ft | 441 kts | 23° |
| 2026-05-05 19:05 | 50.91841 | 3.63462 | 27567 ft | 448 kts | 13° |
| 2026-05-05 19:06 | 50.94939 | 3.64145 | 26669 ft | 453 kts | 4° |
| 2026-05-05 19:06 | 50.98101 | 3.64341 | 25804 ft | 455 kts | 1° |
| 2026-05-05 19:06 | 51.01250 | 3.64467 | 24891 ft | 450 kts | 1° |
| 2026-05-05 19:06 | 51.04349 | 3.64597 | 23987 ft | 443 kts | 1° |
| 2026-05-05 19:07 | 51.07417 | 3.64755 | 23044 ft | 437 kts | 1° |
| 2026-05-05 19:07 | 51.10427 | 3.64934 | 22021 ft | 431 kts | 2° |
| 2026-05-05 19:07 | 51.13404 | 3.65127 | 20999 ft | 425 kts | 2° |
| 2026-05-05 19:07 | 51.16343 | 3.65321 | 19995 ft | 421 kts | 3° |
| 2026-05-05 19:08 | 51.19260 | 3.65514 | 19023 ft | 417 kts | 4° |
| 2026-05-05 19:08 | 51.22114 | 3.66131 | 18305 ft | 412 kts | 17° |
| 2026-05-05 19:08 | 51.24768 | 3.67607 | 18122 ft | 396 kts | 26° |
| 2026-05-05 19:08 | 51.27131 | 3.69672 | 17946 ft | 380 kts | 37° |
| 2026-05-05 19:09 | 51.29236 | 3.72093 | 17829 ft | 366 kts | 38° |
| 2026-05-05 19:09 | 51.31250 | 3.74461 | 17676 ft | 354 kts | 37° |
| 2026-05-05 19:09 | 51.33207 | 3.76752 | 17529 ft | 343 kts | 37° |
| 2026-05-05 19:09 | 51.35108 | 3.78956 | 17384 ft | 332 kts | 37° |
| 2026-05-05 19:10 | 51.36960 | 3.81087 | 17232 ft | 323 kts | 37° |
| 2026-05-05 19:10 | 51.38768 | 3.83165 | 17014 ft | 320 kts | 38° |
| 2026-05-05 19:10 | 51.40516 | 3.85381 | 16656 ft | 319 kts | 48° |
| 2026-05-05 19:10 | 51.41792 | 3.88246 | 16369 ft | 316 kts | 63° |
| 2026-05-05 19:11 | 51.42548 | 3.91535 | 16072 ft | 314 kts | 76° |
| 2026-05-05 19:11 | 51.43073 | 3.94922 | 15766 ft | 312 kts | 77° |
| 2026-05-05 19:11 | 51.43559 | 3.98286 | 15471 ft | 310 kts | 77° |
| 2026-05-05 19:11 | 51.44042 | 4.01654 | 15172 ft | 307 kts | 77° |
| 2026-05-05 19:12 | 51.44524 | 4.04981 | 14869 ft | 306 kts | 77° |
| 2026-05-05 19:12 | 51.45008 | 4.08283 | 14577 ft | 304 kts | 76° |
| 2026-05-05 19:12 | 51.45492 | 4.11565 | 14291 ft | 301 kts | 76° |
| 2026-05-05 19:12 | 51.45976 | 4.14822 | 14003 ft | 300 kts | 76° |
| 2026-05-05 19:13 | 51.46458 | 4.18065 | 13714 ft | 298 kts | 76° |
| 2026-05-05 19:13 | 51.46938 | 4.21287 | 13413 ft | 296 kts | 76° |
| 2026-05-05 19:13 | 51.47415 | 4.24494 | 13081 ft | 295 kts | 76° |
| 2026-05-05 19:13 | 51.47889 | 4.27687 | 12768 ft | 293 kts | 76° |
| 2026-05-05 19:14 | 51.48359 | 4.30858 | 12457 ft | 292 kts | 76° |
| 2026-05-05 19:14 | 51.48828 | 4.34026 | 12144 ft | 292 kts | 76° |
| 2026-05-05 19:14 | 51.49295 | 4.37187 | 11837 ft | 291 kts | 76° |
| 2026-05-05 19:14 | 51.49762 | 4.40349 | 11528 ft | 291 kts | 76° |
| 2026-05-05 19:15 | 51.50229 | 4.43515 | 11229 ft | 291 kts | 76° |
| 2026-05-05 19:15 | 51.50692 | 4.46676 | 10933 ft | 291 kts | 77° |
| 2026-05-05 19:15 | 51.50743 | 4.49920 | 10511 ft | 296 kts | 103° |
| 2026-05-05 19:15 | 51.50135 | 4.53056 | 10305 ft | 292 kts | 107° |
| 2026-05-05 19:16 | 51.49492 | 4.56130 | 10057 ft | 290 kts | 107° |
| 2026-05-05 19:16 | 51.48854 | 4.59198 | 9762 ft | 290 kts | 108° |
| 2026-05-05 19:16 | 51.48224 | 4.62277 | 9451 ft | 289 kts | 107° |
| 2026-05-05 19:16 | 51.47611 | 4.65319 | 9240 ft | 284 kts | 107° |
| 2026-05-05 19:17 | 51.47011 | 4.68332 | 8895 ft | 284 kts | 107° |
| 2026-05-05 19:17 | 51.46415 | 4.71342 | 8562 ft | 283 kts | 107° |
| 2026-05-05 19:17 | 51.45884 | 4.74028 | 8297 ft | 281 kts | 107° |
| 2026-05-05 19:17 | 51.45301 | 4.76985 | 7991 ft | 279 kts | 106° |
| 2026-05-05 19:18 | 51.44725 | 4.79912 | 7696 ft | 278 kts | 106° |
| 2026-05-05 19:18 | 51.44146 | 4.82847 | 7414 ft | 276 kts | 106° |
| 2026-05-05 19:18 | 51.43572 | 4.85765 | 7002 ft | 273 kts | 106° |
| 2026-05-05 19:18 | 51.43003 | 4.88656 | 6589 ft | 271 kts | 105° |
| 2026-05-05 19:19 | 51.42437 | 4.91526 | 6142 ft | 270 kts | 105° |
| 2026-05-05 19:19 | 51.41873 | 4.94384 | 5698 ft | 268 kts | 105° |
| 2026-05-05 19:19 | 51.41314 | 4.97206 | 5295 ft | 264 kts | 105° |
| 2026-05-05 19:19 | 51.40760 | 4.99998 | 4891 ft | 261 kts | 105° |
| 2026-05-05 19:20 | 51.40211 | 5.02759 | 4479 ft | 259 kts | 105° |
| 2026-05-05 19:20 | 51.39669 | 5.05483 | 4087 ft | 255 kts | 105° |
| 2026-05-05 19:20 | 51.39130 | 5.08187 | 3627 ft | 254 kts | 104° |
| 2026-05-05 19:20 | 51.38594 | 5.10872 | 3212 ft | 252 kts | 104° |
| 2026-05-05 19:21 | 51.38036 | 5.13504 | 2930 ft | 247 kts | 110° |
| 2026-05-05 19:21 | 51.37097 | 5.15789 | 2838 ft | 242 kts | 123° |
| 2026-05-05 19:21 | 51.36111 | 5.17868 | 2710 ft | 228 kts | 121° |
| 2026-05-05 19:21 | 51.35197 | 5.19836 | 2605 ft | 212 kts | 121° |
| 2026-05-05 19:22 | 51.34356 | 5.21662 | 2528 ft | 196 kts | 120° |
| 2026-05-05 19:22 | 51.33877 | 5.23526 | 2408 ft | 173 kts | 81° |
| 2026-05-05 19:22 | 51.34396 | 5.25123 | 2384 ft | 164 kts | 39° |
| 2026-05-05 19:22 | 51.35262 | 5.26354 | 2255 ft | 169 kts | 43° |
| 2026-05-05 19:23 | 51.36173 | 5.27539 | 2032 ft | 167 kts | 36° |
| 2026-05-05 19:23 | 51.37094 | 5.28558 | 1804 ft | 154 kts | 34° |
| 2026-05-05 19:23 | 51.37932 | 5.29492 | 1632 ft | 138 kts | 35° |
| 2026-05-05 19:23 | 51.38448 | 5.30072 | 1484 ft | 132 kts | 35° |
| 2026-05-05 19:24 | 51.39205 | 5.30924 | 1308 ft | 130 kts | 35° |
| 2026-05-05 19:24 | 51.39950 | 5.31761 | 1122 ft | 135 kts | 35° |
| 2026-05-05 19:24 | 51.40745 | 5.32657 | 935 ft | 143 kts | 34° |
| 2026-05-05 19:24 | 51.41564 | 5.33577 | 743 ft | 149 kts | 35° |
| 2026-05-05 19:25 | 51.42402 | 5.34509 | 545 ft | 145 kts | 34° |
| 2026-05-05 19:25 | 51.43234 | 5.35453 | 329 ft | 144 kts | 35° |
| 2026-05-05 19:25 | 51.44079 | 5.36402 | 117 ft | 149 kts | 34° |
| 2026-05-05 19:25 | 51.44852 | 5.37271 | 69 ft | 111 kts | 35° |
| 2026-05-05 19:26 | 51.45317 | 5.37792 | 68 ft | 63 kts | 35° |
| 2026-05-05 19:26 | 51.45651 | 5.38165 | 76 ft | 55 kts | 34° |
| 2026-05-05 19:26 | 51.45863 | 5.38404 | 76 ft | 15 kts | 36° |
| 2026-05-05 19:26 | 51.45906 | 5.38520 | 73 ft | 13 kts | 119° |
| 2026-05-05 19:27 | 51.45851 | 5.38642 | 71 ft | 13 kts | 125° |
| 2026-05-05 19:27 | 51.45813 | 5.38730 | 74 ft | 8 kts | 125° |
| 2026-05-05 19:27 | 51.45774 | 5.38791 | 70 ft | 8 kts | 154° |
| 2026-05-05 19:27 | 51.45741 | 5.38846 | 70 ft | 5 kts | 124° |
| 2026-05-05 19:28 | 51.45727 | 5.38879 | 74 ft | 3 kts | 124° |
| 2026-05-05 19:28 | 51.45719 | 5.38898 | 74 ft | 2 kts | 125° |
| 2026-05-05 19:28 | 51.45717 | 5.38901 | 74 ft | 0 kts | 124° |